Time;durP1;ratioP1;P1;durP2;ratioP2;P2;SDS_P1;SDS_P2;PMS_P1;PMS_P2;Temp;Humidity;BMP_temperature;BMP_pressure;BME280_temperature;BME280_humidity;BME280_pressure;Samples;Min_cycle;Max_cycle;Signal;HPM_P1;HPM_P2
2021/12/29 00:01:42;;;;;;;;;4.00;3.50;;;;;11.61;65.15;100170.34;5034920;28;45360;-55
2021/12/29 00:04:08;;;;;;;;;9.75;8.25;;;;;11.57;65.28;100160.91;5035228;28;45420;-54
2021/12/29 00:06:33;;;;;;;;;13.50;4.50;;;;;11.64;64.94;100181.72;5017448;28;45568;-57
2021/12/29 00:08:59;;;;;;;;;8.00;6.00;;;;;11.59;65.38;100173.31;5034590;28;45432;-59
2021/12/29 00:11:26;;;;;;;;;5.75;3.00;;;;;11.58;65.13;100181.84;5035509;28;45263;-56
2021/12/29 00:13:51;;;;;;;;;9.20;4.00;;;;;11.52;65.15;100189.06;5038544;28;45256;-55
2021/12/29 00:16:17;;;;;;;;;8.50;4.25;;;;;11.60;65.38;100190.66;5020968;28;45496;-53
2021/12/29 00:18:44;;;;;;;;;3.00;2.00;;;;;11.59;65.19;100197.25;5038149;28;45446;-54
2021/12/29 00:21:10;;;;;;;;;3.20;3.20;;;;;11.58;65.35;100185.41;5038395;28;45367;-54
2021/12/29 00:23:35;;;;;;;;;12.00;9.20;;;;;11.34;65.44;100156.97;5038178;28;45488;-53
2021/12/29 00:26:01;;;;;;;;;10.00;4.00;;;;;11.47;65.85;100210.94;5020570;28;45402;-58
2021/12/29 00:28:26;;;;;;;;;3.50;3.50;;;;;11.61;65.68;100219.84;5020501;28;45736;-55
2021/12/29 00:30:52;;;;;;;;;4.25;2.75;;;;;11.38;65.90;100182.94;5038180;28;45461;-57
2021/12/29 00:33:17;;;;;;;;;8.00;4.75;;;;;11.58;65.66;100212.06;5037963;28;45473;-57
2021/12/29 00:35:44;;;;;;;;;4.75;4.50;;;;;11.62;66.24;100244.34;5019563;28;45670;-54
2021/12/29 00:38:10;;;;;;;;;4.20;3.00;;;;;11.63;66.11;100247.94;5037716;28;46475;-53
2021/12/29 00:40:36;;;;;;;;;5.00;5.00;;;;;11.63;66.73;100247.94;5037416;28;45333;-54
2021/12/29 00:43:01;;;;;;;;;11.40;5.40;;;;;11.62;66.74;100251.75;5037627;28;45438;-55
2021/12/29 00:45:31;;;;;;;;;3.50;3.50;;;;;11.65;66.58;100265.03;5037930;28;45382;-54
2021/12/29 00:47:56;;;;;;;;;9.60;7.20;;;;;11.63;67.25;100262.50;5037286;28;45538;-54
2021/12/29 00:50:22;;;;;;;;;7.00;4.00;;;;;11.43;66.96;100227.03;5035971;28;45314;-56
2021/12/29 00:52:47;;;;;;;;;7.75;3.00;;;;;11.56;67.51;100258.16;5037624;28;45454;-56
2021/12/29 00:55:13;;;;;;;;;6.50;4.00;;;;;11.40;67.45;100254.97;5030487;28;45458;-55
2021/12/29 00:57:39;;;;;;;;;7.80;4.80;;;;;11.47;67.90;100260.41;5018567;28;46756;-52
2021/12/29 01:00:06;;;;;;;;;6.00;4.50;;;;;11.59;67.61;100271.47;5036041;28;45288;-53
2021/12/29 01:02:32;;;;;;;;;6.80;4.80;;;;;11.53;67.98;100265.81;5036289;28;45849;-55
2021/12/29 01:04:57;;;;;;;;;11.00;4.00;;;;;11.56;67.95;100255.41;5037544;28;45258;-52
2021/12/29 01:07:23;;;;;;;;;6.75;4.25;;;;;11.61;67.27;100267.41;5036277;28;46146;-55
2021/12/29 01:09:48;;;;;;;;;5.50;3.25;;;;;11.59;67.42;100261.28;5035764;28;45271;-57
2021/12/29 01:12:15;;;;;;;;;5.50;5.00;;;;;11.55;67.86;100268.31;5037225;28;45329;-55
2021/12/29 01:14:43;;;;;;;;;5.60;3.80;;;;;11.37;67.79;100259.00;5035953;28;45395;-55
2021/12/29 01:17:09;;;;;;;;;7.60;5.00;;;;;11.48;68.00;100282.13;5037105;28;46954;-54
2021/12/29 01:19:34;;;;;;;;;9.25;2.25;;;;;11.51;68.37;100278.09;5037198;28;45447;-56
2021/12/29 01:22:00;;;;;;;;;8.00;2.50;;;;;11.53;67.89;100274.03;5035551;28;45415;-56
2021/12/29 01:24:27;;;;;;;;;3.20;3.20;;;;;11.57;68.26;100279.91;5019561;28;45398;-50
2021/12/29 01:26:54;;;;;;;;;7.40;7.00;;;;;11.59;68.18;100279.69;5037053;28;47064;-56
2021/12/29 01:29:20;;;;;;;;;5.80;5.80;;;;;11.64;67.96;100274.34;5036756;28;45389;-51
2021/12/29 01:31:46;;;;;;;;;7.00;5.80;;;;;11.57;67.64;100257.13;5037263;28;45357;-52
2021/12/29 01:34:12;;;;;;;;;7.75;4.25;;;;;11.66;67.46;100272.22;5037092;28;45266;-55
2021/12/29 01:36:37;;;;;;;;;8.75;4.75;;;;;11.64;68.08;100271.59;5035339;28;45844;-53
2021/12/29 01:39:04;;;;;;;;;5.50;3.00;;;;;11.68;67.95;100272.00;5035699;28;45596;-57
2021/12/29 01:41:30;;;;;;;;;5.80;3.80;;;;;11.66;67.95;100274.97;5036805;28;45328;-56
2021/12/29 01:43:55;;;;;;;;;9.00;5.00;;;;;11.63;68.04;100270.75;5037238;28;45341;-53
2021/12/29 01:46:21;;;;;;;;;15.00;6.75;;;;;11.62;68.31;100268.22;5033036;28;46010;-51
2021/12/29 01:48:47;;;;;;;;;8.50;5.50;;;;;11.64;67.80;100272.44;5018832;28;45771;-51
2021/12/29 01:51:14;;;;;;;;;6.00;4.00;;;;;11.60;68.19;100275.88;5036587;28;45295;-55
2021/12/29 01:53:47;;;;;;;;;11.20;4.80;;;;;11.59;68.11;100280.53;5019109;28;45456;-54
2021/12/29 01:56:13;;;;;;;;;14.60;8.00;;;;;11.60;68.06;100275.88;5036319;28;45860;-55
2021/12/29 01:58:39;;;;;;;;;9.25;4.75;;;;;11.59;68.31;100269.53;5003351;28;45707;-53
2021/12/29 02:01:05;;;;;;;;;10.80;3.20;;;;;11.48;68.03;100259.31;5018710;28;45666;-55
2021/12/29 02:03:30;;;;;;;;;8.00;3.50;;;;;11.60;68.20;100287.72;5017347;28;45516;-51
2021/12/29 02:05:56;;;;;;;;;7.00;3.25;;;;;11.59;68.52;100291.50;5036169;28;46476;-54
2021/12/29 02:08:23;;;;;;;;;4.25;3.25;;;;;11.59;68.47;100293.44;5035143;28;45461;-56
2021/12/29 02:10:49;;;;;;;;;10.80;4.40;;;;;11.69;68.76;100299.22;5036347;28;45472;-56
2021/12/29 02:13:15;;;;;;;;;7.00;4.40;;;;;11.74;68.89;100304.06;5018343;28;45496;-52
2021/12/29 02:15:40;;;;;;;;;8.00;4.00;;;;;11.48;68.30;100259.31;5034911;28;45568;-53
2021/12/29 02:18:13;;;;;;;;;5.00;3.50;;;;;11.74;68.26;100304.06;5018458;28;45438;-55
2021/12/29 02:20:39;;;;;;;;;6.00;4.40;;;;;11.59;68.11;100266.78;5036076;28;45322;-52
2021/12/29 02:23:16;;;;;;;;;8.40;4.00;;;;;11.70;68.41;100289.94;5036748;28;45600;-53
2021/12/29 02:25:51;;;;;;;;;5.20;3.80;;;;;11.75;68.70;100289.22;5036042;28;46708;-55
2021/12/29 02:28:36;;;;;;;;;8.00;4.80;;;;;11.74;68.20;100290.31;5018489;28;45415;-51
2021/12/29 02:31:02;;;;;;;;;7.20;6.20;;;;;11.57;68.54;100248.88;5017550;28;45418;-50
2021/12/29 02:33:30;;;;;;;;;4.00;3.25;;;;;11.73;68.47;100283.09;5018412;28;45658;-52
2021/12/29 02:35:56;;;;;;;;;6.80;4.00;;;;;11.72;68.35;100293.28;5017644;28;47008;-53
2021/12/29 02:38:27;;;;;;;;;4.25;2.50;;;;;11.74;67.93;100293.88;5018424;28;45434;-54
2021/12/29 02:41:03;;;;;;;;;8.00;5.40;;;;;11.69;68.32;100290.16;5035839;28;45370;-53
2021/12/29 02:43:28;;;;;;;;;5.60;5.00;;;;;11.73;68.04;100292.22;5036437;28;45268;-50
2021/12/29 02:46:00;;;;;;;;;8.20;4.00;;;;;11.71;68.74;100288.00;5035631;28;45926;-50
2021/12/29 02:48:31;;;;;;;;;8.20;3.40;;;;;11.71;68.31;100275.13;5018951;28;45418;-56
2021/12/29 02:50:56;;;;;;;;;3.80;3.00;;;;;11.79;68.30;100273.94;5018621;28;45394;-53
2021/12/29 02:53:24;;;;;;;;;8.00;4.75;;;;;11.79;68.54;100277.53;5018544;28;45553;-52
2021/12/29 02:55:49;;;;;;;;;3.20;2.60;;;;;11.82;68.19;100272.63;5018167;28;46931;-55
2021/12/29 02:58:15;;;;;;;;;6.50;4.00;;;;;11.65;68.27;100249.38;5035961;28;45578;-55
2021/12/29 03:00:40;;;;;;;;;10.00;6.00;;;;;11.82;67.96;100275.38;5035657;28;45225;-51
2021/12/29 03:03:19;;;;;;;;;5.50;4.00;;;;;11.83;68.13;100279.81;5029068;28;45486;-54
2021/12/29 03:05:45;;;;;;;;;4.00;2.80;;;;;11.85;67.92;100280.44;5016520;28;46975;-56
2021/12/29 03:08:12;;;;;;;;;5.25;3.00;;;;;11.56;68.61;100225.19;5034930;28;45254;-53
2021/12/29 03:10:38;;;;;;;;;4.20;3.40;;;;;11.68;68.39;100245.31;5018308;28;45411;-51
2021/12/29 03:13:03;;;;;;;;;6.20;4.60;;;;;11.85;68.47;100263.94;5018084;28;45536;-54
2021/12/29 03:15:29;;;;;;;;;4.00;2.00;;;;;11.88;68.34;100272.56;5035621;28;46204;-58
2021/12/29 03:17:54;;;;;;;;;6.50;4.00;;;;;11.80;68.53;100265.47;5035432;28;45277;-51
2021/12/29 03:20:19;;;;;;;;;4.25;3.00;;;;;11.90;68.41;100280.59;5035797;28;45271;-57
2021/12/29 03:22:45;;;;;;;;;3.00;3.00;;;;;11.87;68.67;100276.38;5036193;28;45579;-55
2021/12/29 03:25:10;;;;;;;;;3.25;2.50;;;;;11.87;68.27;100275.53;5035156;28;46734;-50
2021/12/29 03:27:36;;;;;;;;;9.50;4.00;;;;;11.85;68.54;100273.00;5017751;28;45284;-52
2021/12/29 03:30:02;;;;;;;;;4.25;2.25;;;;;11.85;69.00;100281.25;5034353;28;45227;-57
2021/12/29 03:32:44;;;;;;;;;2.20;2.20;;;;;11.88;68.76;100289.06;5018154;28;45362;-52
2021/12/29 03:35:09;;;;;;;;;2.00;2.00;;;;;11.80;69.22;100281.13;5034828;28;45615;-54
2021/12/29 03:37:36;;;;;;;;;2.75;2.00;;;;;11.83;69.05;100286.16;5017206;28;45432;-51
2021/12/29 03:40:02;;;;;;;;;4.20;2.20;;;;;11.87;69.29;100279.13;5035426;28;45367;-54
2021/12/29 03:42:27;;;;;;;;;5.80;3.00;;;;;11.88;69.18;100272.56;5035447;28;45340;-58
2021/12/29 03:44:53;;;;;;;;;8.00;4.50;;;;;11.91;69.22;100276.75;5017050;28;46432;-51
2021/12/29 03:47:18;;;;;;;;;4.75;2.25;;;;;11.83;69.10;100260.56;5036579;28;45366;-55
2021/12/29 03:49:44;;;;;;;;;9.00;3.50;;;;;11.93;69.19;100280.09;5038806;28;45393;-57
2021/12/29 03:52:09;;;;;;;;;5.00;3.75;;;;;11.91;69.10;100274.00;5038408;28;45299;-51
2021/12/29 03:54:35;;;;;;;;;3.75;3.50;;;;;11.84;69.17;100265.84;5038405;28;46431;-51
2021/12/29 03:57:02;;;;;;;;;2.75;0.75;;;;;11.89;69.67;100273.38;5038356;28;45441;-57
2021/12/29 03:59:28;;;;;;;;;3.60;2.00;;;;;11.88;68.66;100260.72;5038550;28;45388;-54
2021/12/29 04:01:54;;;;;;;;;4.60;3.60;;;;;11.90;69.64;100262.16;5020651;28;45579;-53
2021/12/29 04:04:19;;;;;;;;;4.00;2.25;;;;;11.90;69.46;100264.09;5038261;28;45935;-53
2021/12/29 04:06:45;;;;;;;;;6.75;3.00;;;;;11.91;69.78;100258.34;5038433;28;45430;-58
2021/12/29 04:09:10;;;;;;;;;5.00;4.00;;;;;11.88;69.78;100252.47;5020251;28;45323;-52
2021/12/29 04:11:36;;;;;;;;;4.00;3.00;;;;;11.84;69.79;100254.00;5038578;28;45324;-56
2021/12/29 04:14:01;;;;;;;;;3.00;3.00;;;;;11.90;69.91;100255.84;5038272;28;46276;-52
2021/12/29 04:16:27;;;;;;;;;2.00;2.00;;;;;11.90;69.84;100269.59;5020321;28;45430;-53
2021/12/29 04:19:06;;;;;;;;;1.75;1.75;;;;;11.69;69.72;100236.00;5038015;28;45326;-56
2021/12/29 04:21:33;;;;;;;;;3.20;3.20;;;;;11.70;70.17;100245.94;5037931;28;45362;-57
2021/12/29 04:23:58;;;;;;;;;4.40;3.20;;;;;11.78;70.65;100275.88;5037975;28;46387;-58
2021/12/29 04:26:24;;;;;;;;;1.25;1.00;;;;;11.59;71.34;100252.22;5038050;28;45494;-51
2021/12/29 04:28:49;;;;;;;;;9.25;5.50;;;;;11.71;71.04;100269.63;5038205;28;45446;-55
2021/12/29 04:31:15;;;;;;;;;3.25;1.75;;;;;11.78;71.42;100273.13;5038254;28;45411;-54
2021/12/29 04:33:40;;;;;;;;;4.00;2.00;;;;;11.74;71.49;100265.56;5037853;28;45363;-52
2021/12/29 04:36:06;;;;;;;;;4.25;2.75;;;;;11.72;71.96;100267.69;5037803;28;45356;-51
2021/12/29 04:38:31;;;;;;;;;1.75;1.75;;;;;11.76;71.97;100269.75;5020205;28;45260;-59
2021/12/29 04:40:57;;;;;;;;;4.75;2.50;;;;;11.72;72.45;100276.78;5020619;28;45362;-53
2021/12/29 04:43:23;;;;;;;;;5.00;2.00;;;;;11.75;72.34;100275.50;5037807;28;46075;-53
2021/12/29 04:45:49;;;;;;;;;3.00;2.00;;;;;11.72;72.53;100271.28;5037803;28;45161;-58
2021/12/29 04:48:15;;;;;;;;;5.25;3.75;;;;;11.50;73.03;100233.28;5015201;28;45303;-57
2021/12/29 04:50:42;;;;;;;;;6.75;2.50;;;;;11.55;72.86;100240.84;5038446;28;45595;-50
2021/12/29 04:53:08;;;;;;;;;4.20;1.40;;;;;11.69;73.07;100258.00;5037476;28;45387;-52
2021/12/29 04:55:34;;;;;;;;;3.60;2.00;;;;;11.69;73.33;100249.75;5036247;28;45442;-53
2021/12/29 04:57:59;;;;;;;;;2.00;2.00;;;;;11.69;73.00;100243.41;5036267;28;45375;-54
2021/12/29 05:00:26;;;;;;;;;1.75;0.50;;;;;11.71;72.85;100244.03;5036752;28;45312;-52
2021/12/29 05:02:52;;;;;;;;;2.00;2.00;;;;;11.69;73.43;100252.50;5037179;28;46995;-55
2021/12/29 05:05:39;;;;;;;;;3.00;2.00;;;;;11.53;73.32;100221.00;5037968;28;45337;-56
2021/12/29 05:10:47;;;;;;;;;2.00;1.00;;;;;11.70;73.68;100234.94;5036794;28;45327;-51
2021/12/29 05:13:14;;;;;;;;;1.00;1.00;;;;;11.65;74.06;100237.56;5035966;28;45695;-54
2021/12/29 05:15:39;;;;;;;;;2.40;2.40;;;;;11.63;73.85;100236.94;5037848;28;45858;-54
2021/12/29 05:18:05;;;;;;;;;2.25;2.00;;;;;11.55;75.11;100235.34;5036325;28;45356;-56
2021/12/29 05:20:30;;;;;;;;;3.75;2.00;;;;;11.30;74.86;100194.25;5030363;28;45531;-50
2021/12/29 05:22:57;;;;;;;;;2.50;2.50;;;;;11.56;75.03;100227.91;5005771;28;45374;-54
2021/12/29 05:25:22;;;;;;;;;1.20;1.20;;;;;11.49;74.89;100226.09;5037256;28;45377;-56
2021/12/29 05:27:48;;;;;;;;;4.00;2.50;;;;;11.54;75.21;100219.94;5019463;28;45398;-54
2021/12/29 05:30:13;;;;;;;;;5.25;2.75;;;;;11.56;75.28;100222.44;5037546;28;45921;-49
2021/12/29 05:32:39;;;;;;;;;1.25;1.25;;;;;11.58;75.26;100220.31;5037055;28;47692;-57
2021/12/29 05:35:05;;;;;;;;;7.75;4.00;;;;;11.56;75.02;100215.03;5019265;28;45437;-56
2021/12/29 05:37:30;;;;;;;;;4.00;2.40;;;;;11.54;74.99;100208.94;5036639;28;45493;-53
2021/12/29 05:39:56;;;;;;;;;6.00;4.00;;;;;11.60;75.25;100209.91;5037246;28;45527;-54
2021/12/29 05:42:21;;;;;;;;;7.50;3.00;;;;;11.44;75.52;100186.66;5036686;28;45353;-54
2021/12/29 05:44:47;;;;;;;;;5.00;3.00;;;;;11.46;75.49;100199.09;5037011;28;45224;-52
2021/12/29 05:47:12;;;;;;;;;3.25;3.25;;;;;11.48;76.14;100215.34;5012407;28;45259;-53
2021/12/29 05:49:38;;;;;;;;;5.25;5.00;;;;;11.39;75.55;100199.16;5017190;28;45437;-58
2021/12/29 05:52:04;;;;;;;;;4.75;3.75;;;;;11.44;76.20;100193.00;5016795;28;45424;-51
2021/12/29 05:54:29;;;;;;;;;4.75;4.75;;;;;11.46;76.07;100201.00;5016769;28;45303;-54
2021/12/29 05:56:54;;;;;;;;;5.00;5.00;;;;;11.38;76.81;100194.75;5017239;28;45299;-53
2021/12/29 05:59:20;;;;;;;;;4.00;4.00;;;;;11.39;76.60;100192.84;5016930;28;45497;-52
2021/12/29 06:01:46;;;;;;;;;5.00;3.00;;;;;11.22;76.42;100166.00;5016424;28;45479;-54
2021/12/29 06:04:11;;;;;;;;;7.25;4.75;;;;;11.37;76.20;100190.31;4998647;28;45467;-59
2021/12/29 06:06:36;;;;;;;;;7.75;5.00;;;;;11.40;76.32;100194.53;5016724;28;45435;-54
2021/12/29 06:09:02;;;;;;;;;5.25;4.50;;;;;11.38;76.88;100205.72;5015710;28;45439;-56
2021/12/29 06:11:28;;;;;;;;;4.00;4.00;;;;;11.20;77.10;100165.38;5016372;28;45434;-56
2021/12/29 06:13:53;;;;;;;;;7.00;5.25;;;;;11.36;76.48;100187.78;5016231;28;45426;-53
2021/12/29 06:16:19;;;;;;;;;4.75;4.00;;;;;11.33;77.20;100185.53;5016467;28;45372;-52
2021/12/29 06:18:44;;;;;;;;;3.00;3.00;;;;;11.30;77.29;100184.06;5016556;28;45422;-50
2021/12/29 06:21:16;;;;;;;;;4.25;4.25;;;;;11.32;76.72;100195.66;4998083;28;46550;-59
2021/12/29 06:23:44;;;;;;;;;5.80;5.80;;;;;11.27;77.11;100190.03;5016184;28;45363;-52
2021/12/29 06:26:10;;;;;;;;;3.20;3.20;;;;;11.10;77.62;100165.94;5016007;28;45453;-53
2021/12/29 06:28:37;;;;;;;;;3.20;3.20;;;;;11.29;77.36;100187.03;5016459;28;45297;-53
2021/12/29 06:31:03;;;;;;;;;4.00;4.00;;;;;11.33;77.83;100205.59;5015999;28;45836;-51
2021/12/29 06:33:28;;;;;;;;;6.50;4.50;;;;;11.10;77.60;100171.41;5015787;28;45275;-57
2021/12/29 06:35:54;;;;;;;;;4.25;4.25;;;;;11.31;77.33;100195.91;5016410;28;45362;-60
2021/12/29 06:38:19;;;;;;;;;5.25;3.25;;;;;11.17;77.40;100179.59;5016259;28;45695;-50
2021/12/29 06:40:45;;;;;;;;;5.00;3.00;;;;;11.29;77.88;100206.28;5016367;28;46818;-56
2021/12/29 06:43:10;;;;;;;;;3.50;3.50;;;;;11.17;77.99;100190.59;4997976;28;45304;-55
2021/12/29 06:45:36;;;;;;;;;3.00;3.00;;;;;11.23;78.29;100199.81;5016558;28;45434;-50
2021/12/29 06:48:01;;;;;;;;;7.25;7.25;;;;;11.22;78.19;100200.88;5029124;28;45381;-52
2021/12/29 06:50:27;;;;;;;;;5.50;2.50;;;;;11.21;77.96;100190.97;5034501;28;46545;-58
2021/12/29 06:52:52;;;;;;;;;5.00;3.25;;;;;11.27;78.08;100191.94;5035881;28;45340;-52
2021/12/29 06:55:18;;;;;;;;;6.25;4.00;;;;;11.30;77.83;100197.81;5036148;28;45383;-55
2021/12/29 06:57:43;;;;;;;;;6.00;3.00;;;;;11.24;77.58;100194.09;5035381;28;45630;-56
2021/12/29 07:00:09;;;;;;;;;7.00;4.00;;;;;11.23;77.73;100197.06;5035623;28;45337;-51
2021/12/29 07:02:35;;;;;;;;;4.60;4.60;;;;;11.07;77.59;100176.53;5035753;28;45411;-54
2021/12/29 07:05:00;;;;;;;;;6.25;6.25;;;;;11.23;77.81;100197.91;5036218;28;45404;-52
2021/12/29 07:07:26;;;;;;;;;6.00;4.00;;;;;11.03;77.95;100164.31;5034616;28;45988;-54
2021/12/29 07:09:51;;;;;;;;;5.25;4.00;;;;;11.26;78.06;100191.09;5035540;28;45467;-51
2021/12/29 07:12:19;;;;;;;;;6.50;4.75;;;;;11.25;77.80;100187.53;5035766;28;45342;-58
2021/12/29 07:14:45;;;;;;;;;9.60;7.00;;;;;11.24;78.47;100185.84;5034285;28;45386;-56
2021/12/29 07:17:10;;;;;;;;;8.75;4.75;;;;;11.29;78.75;100203.53;5034112;28;45718;-58
2021/12/29 07:19:36;;;;;;;;;7.50;6.00;;;;;11.30;78.28;100189.56;5034103;28;45507;-54
2021/12/29 07:22:03;;;;;;;;;3.00;3.00;;;;;11.35;78.25;100191.63;5017592;28;45378;-54
2021/12/29 07:24:29;;;;;;;;;6.60;5.00;;;;;11.30;78.55;100200.56;5035485;28;45398;-53
2021/12/29 07:26:55;;;;;;;;;7.20;6.20;;;;;11.33;78.29;100205.59;5036176;28;45492;-52
2021/12/29 07:29:20;;;;;;;;;5.25;5.25;;;;;11.35;78.68;100202.59;5035258;28;45393;-52
2021/12/29 07:31:46;;;;;;;;;3.25;3.25;;;;;11.14;78.50;100174.53;5035420;28;45255;-58
2021/12/29 07:34:11;;;;;;;;;5.75;4.00;;;;;11.33;78.64;100199.25;5017239;28;45382;-52
2021/12/29 07:36:37;;;;;;;;;3.75;3.00;;;;;11.29;78.53;100192.53;5035661;28;45298;-52
2021/12/29 07:39:03;;;;;;;;;5.50;4.25;;;;;11.31;78.69;100202.22;5035067;28;46637;-55
2021/12/29 07:41:29;;;;;;;;;8.40;5.20;;;;;11.35;78.55;100191.63;5033447;28;45341;-53
2021/12/29 07:43:56;;;;;;;;;5.00;5.00;;;;;11.34;78.27;100190.81;5017264;28;45480;-53
2021/12/29 07:46:21;;;;;;;;;4.20;3.00;;;;;11.40;78.79;100208.25;5034173;28;45653;-56
2021/12/29 07:48:47;;;;;;;;;5.50;5.25;;;;;11.22;78.39;100178.91;5034332;28;46375;-54
2021/12/29 07:51:12;;;;;;;;;4.50;3.25;;;;;11.36;78.48;100204.28;5033873;28;45422;-55
2021/12/29 07:53:38;;;;;;;;;6.75;6.50;;;;;11.41;78.17;100220.09;5035007;28;45402;-55
2021/12/29 07:56:07;;;;;;;;;4.25;4.25;;;;;11.44;78.50;100222.38;5033886;28;45255;-58
2021/12/29 07:58:33;;;;;;;;;4.00;4.00;;;;;11.45;78.55;100218.56;5016692;28;46071;-54
2021/12/29 08:00:59;;;;;;;;;8.40;5.00;;;;;11.46;78.15;100211.97;5033415;28;45477;-54
2021/12/29 08:03:25;;;;;;;;;7.50;7.50;;;;;11.41;78.37;100215.44;5033651;28;45405;-56
2021/12/29 08:05:50;;;;;;;;;8.00;4.00;;;;;11.45;78.88;100219.41;5034598;28;45379;-54
2021/12/29 08:08:16;;;;;;;;;3.50;3.50;;;;;11.18;78.54;100174.94;5034690;28;47171;-50
2021/12/29 08:10:41;;;;;;;;;6.75;5.25;;;;;11.42;78.33;100211.59;5034776;28;45568;-50
2021/12/29 08:13:07;;;;;;;;;7.25;5.50;;;;;11.52;78.83;100233.91;5033392;28;45398;-52
2021/12/29 08:15:33;;;;;;;;;5.25;4.00;;;;;11.48;78.93;100229.91;5033555;28;45521;-52
2021/12/29 08:18:01;;;;;;;;;7.50;4.00;;;;;11.50;78.86;100238.78;5034646;28;46677;-51
2021/12/29 08:20:27;;;;;;;;;7.20;7.20;;;;;11.53;78.58;100241.06;5034239;28;45398;-50
2021/12/29 08:22:52;;;;;;;;;10.00;7.00;;;;;11.47;78.88;100230.16;4998418;28;47884;-49
2021/12/29 08:25:18;;;;;;;;;8.25;7.50;;;;;11.47;80.14;100252.97;5034863;28;45378;-51
2021/12/29 08:27:44;;;;;;;;;8.50;7.75;;;;;11.40;79.86;100233.00;5034404;28;45660;-51
2021/12/29 08:30:10;;;;;;;;;6.00;6.00;;;;;11.46;79.32;100251.31;5034203;28;45440;-51
2021/12/29 08:32:35;;;;;;;;;12.80;7.80;;;;;11.49;79.35;100259.06;5035350;28;45300;-51
2021/12/29 08:35:01;;;;;;;;;9.00;7.00;;;;;11.51;79.76;100256.97;5003309;28;45549;-54
2021/12/29 08:37:26;;;;;;;;;9.00;7.50;;;;;11.51;79.96;100256.09;5037579;28;45768;-53
2021/12/29 08:39:52;;;;;;;;;7.00;7.00;;;;;11.53;79.83;100254.00;5037517;28;45302;-54
2021/12/29 08:42:17;;;;;;;;;6.50;6.50;;;;;11.50;79.60;100249.78;5037874;28;45395;-50
2021/12/29 08:44:43;;;;;;;;;5.00;5.00;;;;;11.49;79.16;100245.34;5037854;28;45352;-53
2021/12/29 08:47:09;;;;;;;;;4.50;4.50;;;;;11.46;79.28;100223.81;5037126;28;45691;-53
2021/12/29 08:49:34;;;;;;;;;9.25;7.00;;;;;11.62;79.28;100244.34;5037791;28;45381;-52
2021/12/29 08:52:00;;;;;;;;;5.50;5.50;;;;;11.65;79.29;100249.38;5037484;28;45388;-50
2021/12/29 08:54:26;;;;;;;;;16.50;14.75;;;;;11.65;79.65;100237.56;5037884;28;45906;-50
2021/12/29 08:56:53;;;;;;;;;9.80;8.80;;;;;11.73;79.37;100248.22;5036921;28;45701;-50
2021/12/29 08:59:19;;;;;;;;;9.00;5.00;;;;;11.70;79.51;100254.19;5037321;28;45344;-49
2021/12/29 09:01:44;;;;;;;;;4.75;4.00;;;;;11.75;79.64;100248.81;5036458;28;45322;-53
2021/12/29 09:04:10;;;;;;;;;6.50;6.50;;;;;11.72;79.67;100232.81;5037588;28;45318;-50
2021/12/29 09:06:35;;;;;;;;;4.25;4.00;;;;;11.79;80.06;100251.94;5036506;28;45363;-49
2021/12/29 09:09:01;;;;;;;;;8.25;5.25;;;;;11.82;79.62;100235.00;5037064;28;45594;-50
2021/12/29 09:11:29;;;;;;;;;4.75;4.75;;;;;11.56;79.78;100193.03;5037312;28;45473;-53
2021/12/29 09:13:55;;;;;;;;;6.20;6.20;;;;;11.83;79.87;100235.81;5037581;28;45356;-53
2021/12/29 09:16:21;;;;;;;;;8.00;8.00;;;;;11.89;79.60;100229.38;5037253;28;46819;-55
2021/12/29 09:18:46;;;;;;;;;7.20;7.00;;;;;11.93;79.40;100236.09;5037183;28;45277;-49
2021/12/29 09:21:15;;;;;;;;;9.25;7.00;;;;;11.99;79.87;100229.66;5035834;28;45475;-54
2021/12/29 09:23:41;;;;;;;;;7.80;6.20;;;;;11.99;79.80;100235.19;5037493;28;45325;-53
2021/12/29 09:26:07;;;;;;;;;9.60;7.20;;;;;11.92;79.67;100212.44;5036809;28;46647;-53
2021/12/29 09:28:32;;;;;;;;;4.75;4.75;;;;;12.00;79.75;100223.09;5037015;28;45400;-50
2021/12/29 09:30:58;;;;;;;;;4.50;4.50;;;;;12.02;79.74;100220.94;5037157;28;45363;-51
2021/12/29 09:33:23;;;;;;;;;6.25;4.75;;;;;12.07;79.76;100232.13;5035887;28;45656;-51
2021/12/29 09:35:52;;;;;;;;;5.75;4.25;;;;;12.27;79.88;100247.47;5036634;28;46282;-52
2021/12/29 09:38:17;;;;;;;;;6.40;5.00;;;;;12.20;79.99;100230.25;5035992;28;45411;-51
2021/12/29 09:40:43;;;;;;;;;7.25;4.00;;;;;12.34;79.97;100236.38;5018876;28;45418;-53
2021/12/29 09:43:08;;;;;;;;;4.75;4.50;;;;;12.26;79.92;100218.28;5001590;28;45548;-53
2021/12/29 09:45:37;;;;;;;;;9.75;7.00;;;;;12.43;80.09;100243.22;5014406;28;45421;-53
2021/12/29 09:48:03;;;;;;;;;4.60;3.40;;;;;12.45;79.83;100241.06;5003428;28;45506;-52
2021/12/29 09:50:29;;;;;;;;;5.50;5.00;;;;;12.46;79.75;100230.88;5014755;28;45490;-57
2021/12/29 09:52:55;;;;;;;;;3.00;3.00;;;;;12.30;79.79;100194.75;5032044;28;45519;-57
2021/12/29 09:55:21;;;;;;;;;7.20;5.00;;;;;12.10;80.20;100158.47;5014700;28;45476;-52
2021/12/29 09:57:48;;;;;;;;;7.25;5.00;;;;;12.49;80.30;100233.16;5014155;28;45860;-56
2021/12/29 10:00:23;;;;;;;;;5.20;5.20;;;;;12.52;80.08;100232.69;5032619;28;45446;-57
2021/12/29 10:02:48;;;;;;;;;6.20;5.00;;;;;12.56;80.39;100228.41;5032427;28;45675;-55
2021/12/29 10:05:14;;;;;;;;;7.75;7.25;;;;;12.59;80.62;100235.31;5026005;28;47074;-54
2021/12/29 10:07:39;;;;;;;;;7.50;7.50;;;;;12.63;80.35;100235.72;5032428;28;45680;-59
2021/12/29 10:10:18;;;;;;;;;5.75;5.75;;;;;12.63;81.19;100227.44;5014874;28;45381;-51
2021/12/29 10:12:44;;;;;;;;;6.20;5.00;;;;;12.71;80.64;100229.84;5032523;28;45436;-50
2021/12/29 10:15:10;;;;;;;;;4.00;4.00;;;;;12.71;81.63;100229.84;5031193;28;46916;-52
2021/12/29 10:17:35;;;;;;;;;8.75;7.25;;;;;12.78;80.92;100235.22;5013165;28;45910;-56
2021/12/29 10:20:03;;;;;;;;;6.00;5.00;;;;;12.77;81.16;100234.41;5032529;28;45489;-51
2021/12/29 10:22:28;;;;;;;;;5.20;5.00;;;;;12.81;81.16;100241.09;5014587;28;45667;-53
2021/12/29 10:25:24;;;;;;;;;5.50;3.75;;;;;12.85;80.96;100247.81;5032295;28;46604;-55
2021/12/29 10:27:53;;;;;;;;;5.00;5.00;;;;;12.85;81.49;100247.81;5031798;28;45487;-53
2021/12/29 10:30:29;;;;;;;;;7.60;5.80;;;;;12.72;81.82;100237.03;5013710;28;45442;-57
2021/12/29 10:32:56;;;;;;;;;5.60;5.60;;;;;12.87;81.60;100248.38;5014486;28;45759;-58
2021/12/29 10:35:22;;;;;;;;;3.00;3.00;;;;;12.94;81.62;100255.69;5010529;28;46124;-57
2021/12/29 10:37:49;;;;;;;;;2.20;2.20;;;;;12.79;81.96;100228.63;5034501;28;45739;-55
2021/12/29 10:40:24;;;;;;;;;3.60;2.60;;;;;12.72;82.34;100204.81;4993331;28;46763;-53
2021/12/29 10:42:55;;;;;;;;;6.80;6.20;;;;;13.06;82.34;100247.41;5012268;28;45608;-52
2021/12/29 10:45:28;;;;;;;;;16.80;15.20;;;;;13.11;83.14;100253.91;5030021;28;45983;-53
2021/12/29 10:47:53;;;;;;;;;2.00;1.00;;;;;13.13;83.53;100259.19;5030980;28;45624;-54
2021/12/29 10:50:19;;;;;;;;;0.25;0.25;;;;;13.15;84.63;100257.84;5030823;28;45454;-55
2021/12/29 10:52:49;;;;;;;;;0.75;0.75;;;;;13.19;83.76;100254.63;5031398;28;46121;-57
2021/12/29 10:55:19;;;;;;;;;0.00;0.00;;;;;13.25;83.69;100261.91;5008036;28;45771;-56
2021/12/29 10:57:45;;;;;;;;;2.00;1.00;;;;;13.11;83.95;100233.75;5028720;28;45605;-58
2021/12/29 11:00:17;;;;;;;;;1.00;1.00;;;;;13.15;83.72;100241.31;5029518;28;45503;-57
2021/12/29 11:02:45;;;;;;;;;0.00;0.00;;;;;13.29;84.68;100261.19;4998182;28;45459;-49
2021/12/29 11:05:11;;;;;;;;;0.00;0.00;;;;;13.30;84.56;100270.31;5029756;28;46028;-50
2021/12/29 11:07:37;;;;;;;;;1.00;1.00;;;;;13.33;85.10;100261.53;5032707;28;45703;-50
2021/12/29 11:10:17;;;;;;;;;2.00;0.00;;;;;13.22;84.61;100248.59;5016689;28;45440;-55
2021/12/29 11:12:47;;;;;;;;;0.00;0.00;;;;;13.39;84.28;100266.06;5016748;28;45567;-52
2021/12/29 11:15:30;;;;;;;;;1.00;1.00;;;;;13.46;84.66;100267.91;5050467;28;46102;-54
2021/12/29 11:17:59;;;;;;;;;2.60;1.60;;;;;13.47;83.70;100264.06;5026136;28;45482;-58
2021/12/29 11:20:26;;;;;;;;;0.00;0.00;;;;;13.54;84.18;100270.28;5012422;28;45462;-55
2021/12/29 11:22:52;;;;;;;;;0.00;0.00;;;;;13.63;84.26;100279.84;5030938;28;45808;-50
2021/12/29 11:25:29;;;;;;;;;3.00;0.00;;;;;13.69;84.46;100278.03;5030330;28;46669;-53